Prairie Home, MO

6:42 AM CDT on August 02, 2015 (GMT -0500)
Wooldridge, MO | | Change Station
CLOSE
Current Station
Personal Weather Station
Location: Boonville, MO
Elevation: 748 ft
Nearby Weather Stations
Active Advisory: Flood Warning

Elev 748 ft 38.93 °N, 92.58 °W | Updated 2 minutes ago

Clear
Clear
62.5 °F
Feels Like 62.5 °F
N
0.0
Wind Variable Wind from West

Today
High -- | Low -- °F
--% Chance of Precip.
Yesterday
High -- | Low -- °F
Precip. -- in
6:12 AM 8:20 PM
Waning Gibbous, 94% visible
Pressure 29.95 in
Visibility 10.0 miles
Clouds Clear
Dew Point 62 °F
Humidity 98%
Rainfall 0.00 in
Snow Depth Not available.
UV 0 out of 12
Pollen 7.50 out of 12
Air Quality Not available.
Flu Activity Not available.
METAR KVER 021135Z AUTO 00000KT 10SM CLR 20/20 A2995 RMK AO2 T01950195

More Conditions Fewer Conditions

Pressure 29.95 in
Visibility 10.0 miles
Clouds Clear
Dew Point 62 °F
Humidity 98%
Rainfall 0.00 in
Snow Depth Not available.
UV 0 out of 12
Pollen 7.50 out of 12
Air Quality Not available.
Flu Activity Not available.
METAR KVER 021135Z AUTO 00000KT 10SM CLR 20/20 A2995 RMK AO2 T01950195

More Conditions Fewer Conditions

10-Day Weather Forecast

×

Almanac

Astronomy

Aug. 02, 2015 Rise Set
Actual Time
Civil Twilight
Nautical Twilight
Astronomical Twilight
Moon
Length of Visible Light
Length of Day
Tomorrow will be .
, % of the Moon is Illuminated

Today's Extremes

State Highs State Lows

Community

WunderPhotos

Upload Photos

1,843,233 photos uploaded!

WunderBlogs® & News

Nearby

Air Quality

  Air Quality AQ Index Pollutant
Not available.

Snow Depth

Station Depth Elevation

Earthquake Activity

City Distance Mag. Time & Date
Minimum magnitude displayed is 2.5.

Coastal Water Temperatures

Place Temperature

Stations

Nearby Weather Stations

Station Location Temp. Windchill Dew Point Humidity Wind Precip. Elev Updated Type
                   
Flood Warning
Statement as of 10:55 AM CDT on August 01, 2015

The Flood Warning continues for
the Missouri River at Boonville.
* From late tonight to late Sunday night.
* At 10:30 am Saturday the stage was 20.5 feet.
* Flood stage is 21.0 feet.
* Forecast... the river is expected to rise to near flood stage early
Sunday morning.
* At 21.0 feet... low-lying rural areas along the river flood.

                       Latest
location fs stage day/time forecast

Missouri River
Boonville 21 20.5 Sat 10 am 21.0 early Sunday morning


lat... Lon 3908 9297 3902 9255 3894 9259 3896 9286 3903 9298